createdAt,value
2019-04-25T00:00:40.086Z,18.35
2019-04-25T00:01:39.949Z,18.32
2019-04-25T00:02:39.309Z,18.44
2019-04-25T00:03:39.299Z,18.35
2019-04-25T00:04:39.297Z,18.32
2019-04-25T00:05:39.278Z,18.41
2019-04-25T00:06:48.119Z,18.34
2019-04-25T00:07:39.258Z,18.31
2019-04-25T00:08:39.245Z,18.34
2019-04-25T00:09:39.235Z,18.32
2019-04-25T00:10:39.264Z,18.35
2019-04-25T00:11:39.318Z,18.32
2019-04-25T00:12:39.435Z,18.36
2019-04-25T00:13:39.698Z,18.32
2019-04-25T00:14:39.625Z,18.35
2019-04-25T00:15:39.953Z,18.32
2019-04-25T00:16:39.485Z,18.32
2019-04-25T00:17:40.111Z,18.35
2019-04-25T00:18:40.099Z,18.32
2019-04-25T00:19:39.126Z,18.29
2019-04-25T00:20:39.116Z,18.31
2019-04-25T00:21:39.245Z,18.34
2019-04-25T00:22:39.319Z,18.31
2019-04-25T00:23:39.458Z,18.31
2019-04-25T00:24:39.751Z,18.25
2019-04-25T00:25:41.519Z,18.21
2019-04-25T00:26:40.201Z,18.20
2019-04-25T00:27:39.039Z,18.29
2019-04-25T00:28:39.028Z,18.26
2019-04-25T00:29:39.020Z,18.23
2019-04-25T00:30:40.307Z,18.21
2019-04-25T00:31:38.998Z,18.20
2019-04-25T00:32:39.006Z,18.19
2019-04-25T00:33:38.975Z,18.26
2019-04-25T00:34:38.964Z,18.21
2019-04-25T00:35:38.953Z,18.29
2019-04-25T00:36:39.084Z,18.26
2019-04-25T00:37:38.941Z,18.32
2019-04-25T00:38:38.921Z,18.32
2019-04-25T00:39:38.915Z,18.31
2019-04-25T00:40:38.900Z,18.32
2019-04-25T00:41:38.889Z,18.34
2019-04-25T00:42:38.891Z,18.34
2019-04-25T00:43:38.871Z,18.36
2019-04-25T00:44:38.857Z,18.32
2019-04-25T00:45:38.845Z,18.36
2019-04-25T00:46:38.836Z,18.32
2019-04-25T00:47:38.837Z,18.32
2019-04-25T00:48:38.836Z,18.28
2019-04-25T00:49:38.804Z,18.32
2019-04-25T00:50:38.793Z,18.31
2019-04-25T00:51:38.782Z,18.31
2019-04-25T00:52:38.780Z,18.31
2019-04-25T00:53:38.760Z,18.31
2019-04-25T00:54:38.750Z,18.26
2019-04-25T00:55:38.748Z,18.31
2019-04-25T00:56:38.728Z,18.28
2019-04-25T00:57:38.725Z,18.25
2019-04-25T00:58:38.706Z,18.28
2019-04-25T00:59:38.694Z,18.28
2019-04-25T01:00:38.686Z,18.16
2019-04-25T01:01:38.673Z,18.23
2019-04-25T01:02:38.675Z,18.20
2019-04-25T01:03:38.652Z,18.16
2019-04-25T01:04:38.641Z,18.16
2019-04-25T01:05:38.630Z,18.19
2019-04-25T01:06:38.620Z,18.19
2019-04-25T01:07:38.619Z,18.17
2019-04-25T01:08:38.599Z,18.19
2019-04-25T01:09:38.588Z,18.13
2019-04-25T01:10:38.576Z,18.11
2019-04-25T01:11:38.565Z,18.10
2019-04-25T01:12:38.557Z,18.10
2019-04-25T01:13:38.557Z,18.14
2019-04-25T01:14:38.534Z,18.14
2019-04-25T01:15:38.525Z,18.17
2019-04-25T01:16:38.513Z,18.13
2019-04-25T01:17:38.503Z,18.07
2019-04-25T01:18:38.499Z,18.13
2019-04-25T01:19:38.488Z,18.09
2019-04-25T01:20:38.469Z,18.10
2019-04-25T01:21:38.459Z,18.23
2019-04-25T01:22:38.447Z,18.13
2019-04-25T01:23:38.448Z,18.20
2019-04-25T01:24:38.428Z,18.11
2019-04-25T01:25:42.331Z,18.04
2019-04-25T01:26:38.408Z,18.11
2019-04-25T01:27:38.394Z,18.11
2019-04-25T01:28:38.396Z,18.11
2019-04-25T01:29:38.374Z,18.11
2019-04-25T01:30:38.360Z,18.10
2019-04-25T01:31:38.351Z,18.10
2019-04-25T01:32:38.347Z,18.07
2019-04-25T01:33:38.340Z,18.09
2019-04-25T01:34:38.316Z,18.11
2019-04-25T01:35:38.311Z,18.09
2019-04-25T01:36:38.302Z,18.04
2019-04-25T01:37:38.284Z,17.99
2019-04-25T01:38:38.284Z,18.14
2019-04-25T01:39:38.266Z,18.05
2019-04-25T01:40:38.255Z,18.09
2019-04-25T01:41:38.243Z,18.13
2019-04-25T01:42:38.234Z,18.05
2019-04-25T01:43:38.231Z,18.09
2019-04-25T01:44:38.208Z,18.09
2019-04-25T01:45:38.200Z,18.07
2019-04-25T01:46:38.187Z,18.09
2019-04-25T01:47:38.179Z,18.02
2019-04-25T01:48:38.180Z,18.09
2019-04-25T01:49:38.154Z,18.05
2019-04-25T01:50:38.147Z,18.11
2019-04-25T01:51:38.136Z,18.09
2019-04-25T01:52:38.123Z,18.10
2019-04-25T01:53:38.123Z,18.07
2019-04-25T01:54:38.102Z,18.17
2019-04-25T01:55:38.090Z,18.13
2019-04-25T01:56:38.079Z,18.07
2019-04-25T01:57:38.078Z,18.13
2019-04-25T01:58:38.093Z,18.13
2019-04-25T01:59:38.050Z,18.10
2019-04-25T02:00:38.037Z,18.11
2019-04-25T02:01:38.026Z,18.10
2019-04-25T02:02:38.015Z,18.11
2019-04-25T02:03:38.005Z,18.11
2019-04-25T02:04:38.003Z,18.11
2019-04-25T02:05:37.985Z,18.19
2019-04-25T02:06:37.973Z,18.14
2019-04-25T02:07:37.959Z,18.11
2019-04-25T02:08:37.951Z,18.13
2019-04-25T02:09:37.954Z,18.11
2019-04-25T02:10:37.930Z,18.07
2019-04-25T02:11:37.921Z,18.10
2019-04-25T02:12:37.909Z,18.07
2019-04-25T02:13:37.896Z,18.13
2019-04-25T02:14:37.896Z,18.19
2019-04-25T02:15:37.874Z,18.16
2019-04-25T02:16:37.864Z,18.20
2019-04-25T02:17:37.861Z,18.11
2019-04-25T02:18:37.843Z,18.16
2019-04-25T02:19:37.843Z,18.07
2019-04-25T02:20:37.827Z,18.07
2019-04-25T02:21:37.812Z,18.13
2019-04-25T02:22:37.798Z,18.11
2019-04-25T02:23:37.796Z,18.10
2019-04-25T02:24:37.792Z,18.10
2019-04-25T02:25:37.767Z,18.11
2019-04-25T02:26:37.756Z,18.01
2019-04-25T02:27:37.746Z,18.02
2019-04-25T02:28:37.735Z,18.13
2019-04-25T02:29:37.735Z,18.09
2019-04-25T02:30:37.715Z,18.07
2019-04-25T02:31:37.704Z,17.96
2019-04-25T02:32:37.690Z,17.94
2019-04-25T02:33:37.681Z,17.99
2019-04-25T02:34:37.681Z,17.92
2019-04-25T02:35:37.664Z,17.98
2019-04-25T02:36:37.652Z,17.99
2019-04-25T02:37:37.639Z,17.94
2019-04-25T02:38:37.626Z,17.99
2019-04-25T02:39:37.698Z,17.95
2019-04-25T02:40:37.610Z,17.96
2019-04-25T02:41:37.597Z,17.99
2019-04-25T02:42:37.586Z,17.92
2019-04-25T02:43:37.582Z,17.91
2019-04-25T02:44:37.574Z,17.92
2019-04-25T02:45:37.576Z,17.87
2019-04-25T02:46:37.546Z,17.94
2019-04-25T02:47:37.532Z,17.87
2019-04-25T02:48:37.520Z,17.87
2019-04-25T02:49:39.579Z,17.83
2019-04-25T02:50:37.504Z,17.81
2019-04-25T02:51:37.513Z,17.86
2019-04-25T02:52:37.484Z,17.83
2019-04-25T02:53:37.733Z,17.87
2019-04-25T02:54:37.457Z,17.83
2019-04-25T02:55:37.840Z,17.87
2019-04-25T02:56:38.819Z,17.79
2019-04-25T02:57:37.422Z,17.73
2019-04-25T02:58:37.415Z,17.80
2019-04-25T02:59:37.460Z,17.74
2019-04-25T03:00:51.653Z,17.71
2019-04-25T03:01:38.392Z,17.71
2019-04-25T03:02:37.368Z,17.73
2019-04-25T03:03:37.358Z,17.73
2019-04-25T03:04:37.359Z,17.68
2019-04-25T03:05:37.373Z,17.71
2019-04-25T03:06:37.358Z,17.70
2019-04-25T03:07:37.343Z,17.70
2019-04-25T03:08:37.304Z,17.71
2019-04-25T03:09:37.293Z,17.73
2019-04-25T03:10:37.294Z,17.74
2019-04-25T03:11:37.271Z,17.73
2019-04-25T03:12:37.259Z,17.68
2019-04-25T03:13:37.249Z,17.74
2019-04-25T03:14:37.238Z,17.76
2019-04-25T03:15:37.248Z,17.66
2019-04-25T03:16:37.220Z,17.73
2019-04-25T03:17:37.211Z,17.73
2019-04-25T03:18:37.195Z,17.79
2019-04-25T03:19:37.186Z,17.74
2019-04-25T03:20:37.187Z,17.74
2019-04-25T03:21:37.170Z,17.77
2019-04-25T03:22:37.153Z,17.66
2019-04-25T03:23:37.167Z,17.68
2019-04-25T03:24:37.133Z,17.66
2019-04-25T03:25:37.144Z,17.66
2019-04-25T03:26:40.258Z,17.70
2019-04-25T03:27:37.099Z,17.65
2019-04-25T03:28:37.087Z,17.74
2019-04-25T03:29:37.076Z,17.70
2019-04-25T03:30:37.066Z,17.68
2019-04-25T03:31:37.068Z,17.66
2019-04-25T03:32:37.048Z,17.68
2019-04-25T03:33:38.487Z,17.66
2019-04-25T03:34:37.026Z,17.65
2019-04-25T03:35:37.011Z,17.68
2019-04-25T03:36:37.009Z,17.66
2019-04-25T03:37:36.991Z,17.66
2019-04-25T03:38:36.979Z,17.70
2019-04-25T03:39:36.967Z,17.68
2019-04-25T03:40:36.958Z,17.62
2019-04-25T03:41:36.956Z,17.60
2019-04-25T03:42:36.935Z,17.63
2019-04-25T03:43:36.924Z,17.63
2019-04-25T03:44:36.913Z,17.63
2019-04-25T03:45:36.910Z,17.58
2019-04-25T03:46:36.901Z,17.55
2019-04-25T03:47:36.883Z,17.47
2019-04-25T03:48:37.147Z,17.57
2019-04-25T03:49:36.859Z,17.53
2019-04-25T03:50:36.847Z,17.55
2019-04-25T03:51:36.851Z,17.49
2019-04-25T03:52:36.828Z,17.49
2019-04-25T03:53:36.816Z,17.51
2019-04-25T03:54:36.803Z,17.51
2019-04-25T03:55:36.794Z,17.53
2019-04-25T03:56:36.797Z,17.46
2019-04-25T03:57:36.772Z,17.40
2019-04-25T03:58:36.763Z,17.42
2019-04-25T03:59:36.755Z,17.36
2019-04-25T04:00:36.748Z,17.38
2019-04-25T04:01:36.741Z,17.42
2019-04-25T04:02:36.725Z,17.35
2019-04-25T04:03:36.708Z,17.35
2019-04-25T04:04:36.700Z,17.38
2019-04-25T04:05:36.695Z,17.38
2019-04-25T04:06:36.687Z,17.40
2019-04-25T04:07:36.666Z,17.42
2019-04-25T04:08:36.656Z,17.40
2019-04-25T04:09:36.642Z,17.40
2019-04-25T04:10:36.633Z,17.36
2019-04-25T04:11:36.632Z,17.27
2019-04-25T04:12:36.649Z,17.35
2019-04-25T04:13:36.601Z,17.20
2019-04-25T04:14:36.590Z,17.15
2019-04-25T04:15:36.584Z,17.25
2019-04-25T04:16:36.577Z,17.24
2019-04-25T04:17:36.571Z,17.21
2019-04-25T04:18:36.545Z,17.07
2019-04-25T04:19:36.538Z,17.17
2019-04-25T04:20:36.530Z,17.10
2019-04-25T04:21:36.524Z,17.22
2019-04-25T04:22:36.503Z,17.10
2019-04-25T04:23:36.492Z,17.14
2019-04-25T04:24:36.483Z,17.14
2019-04-25T04:25:36.471Z,17.15
2019-04-25T04:26:36.469Z,17.05
2019-04-25T04:27:36.455Z,17.06
2019-04-25T04:28:36.445Z,17.14
2019-04-25T04:29:36.446Z,17.02
2019-04-25T04:30:36.419Z,16.96
2019-04-25T04:31:36.423Z,16.98
2019-04-25T04:32:36.410Z,16.96
2019-04-25T04:33:36.390Z,17.00
2019-04-25T04:34:36.373Z,16.95
2019-04-25T04:35:36.363Z,16.95
2019-04-25T04:36:36.371Z,16.91
2019-04-25T04:37:36.343Z,16.96
2019-04-25T04:38:36.342Z,16.95
2019-04-25T04:39:36.321Z,16.90
2019-04-25T04:40:36.322Z,16.81
2019-04-25T04:41:36.304Z,16.85
2019-04-25T04:42:36.295Z,16.87
2019-04-25T04:43:36.278Z,16.81
2019-04-25T04:44:36.267Z,16.84
2019-04-25T04:45:36.256Z,16.84
2019-04-25T04:46:36.259Z,16.77
2019-04-25T04:47:36.246Z,16.77
2019-04-25T04:48:36.222Z,16.75
2019-04-25T04:49:36.216Z,16.70
2019-04-25T04:50:36.203Z,16.70
2019-04-25T04:51:36.191Z,16.77
2019-04-25T04:52:36.193Z,16.70
2019-04-25T04:53:36.171Z,16.77
2019-04-25T04:54:36.158Z,16.67
2019-04-25T04:55:36.156Z,16.60
2019-04-25T04:56:36.139Z,16.62
2019-04-25T04:57:36.413Z,16.62
2019-04-25T04:58:36.116Z,16.67
2019-04-25T04:59:36.106Z,16.57
2019-04-25T05:00:36.094Z,16.63
2019-04-25T05:01:36.086Z,16.65
2019-04-25T05:02:36.090Z,16.60
2019-04-25T05:03:36.077Z,16.63
2019-04-25T05:04:36.051Z,16.63
2019-04-25T05:05:36.040Z,16.69
2019-04-25T05:06:36.040Z,16.70
2019-04-25T05:07:36.030Z,16.67
2019-04-25T05:08:36.010Z,16.70
2019-04-25T05:09:35.999Z,16.81
2019-04-25T05:10:35.986Z,16.75
2019-04-25T05:11:35.988Z,16.87
2019-04-25T05:12:35.992Z,16.90
2019-04-25T05:13:35.958Z,16.82
2019-04-25T05:14:35.943Z,16.81
2019-04-25T05:15:35.934Z,16.96
2019-04-25T05:16:35.929Z,16.92
2019-04-25T05:17:35.927Z,16.96
2019-04-25T05:18:39.496Z,17.06
2019-04-25T05:19:35.892Z,17.14
2019-04-25T05:20:35.880Z,17.07
2019-04-25T05:21:35.868Z,17.17
2019-04-25T05:22:35.891Z,17.14
2019-04-25T05:23:35.851Z,17.20
2019-04-25T05:24:35.838Z,17.33
2019-04-25T05:25:35.829Z,17.40
2019-04-25T05:26:35.818Z,17.43
2019-04-25T05:27:46.368Z,17.47
2019-04-25T05:28:36.817Z,17.43
2019-04-25T05:29:35.783Z,17.53
2019-04-25T05:30:35.788Z,17.63
2019-04-25T05:31:35.762Z,17.68
2019-04-25T05:32:35.803Z,17.84
2019-04-25T05:33:35.747Z,17.84
2019-04-25T05:34:35.729Z,18.01
2019-04-25T05:35:35.722Z,17.96
2019-04-25T05:36:35.723Z,18.07
2019-04-25T05:37:35.701Z,18.14
2019-04-25T05:38:35.706Z,18.28
2019-04-25T05:39:35.674Z,18.49
2019-04-25T05:40:35.665Z,18.60
2019-04-25T05:41:35.977Z,18.64
2019-04-25T05:42:35.644Z,18.83
2019-04-25T05:43:35.640Z,18.94
2019-04-25T05:44:35.622Z,19.12
2019-04-25T05:45:35.612Z,19.21
2019-04-25T05:46:35.601Z,19.28
2019-04-25T05:47:35.591Z,19.57
2019-04-25T05:48:35.587Z,19.65
2019-04-25T05:49:35.568Z,19.82
2019-04-25T05:50:35.557Z,19.83
2019-04-25T05:51:35.544Z,19.89
2019-04-25T05:52:35.535Z,19.95
2019-04-25T05:53:35.540Z,20.04
2019-04-25T05:54:35.514Z,20.22
2019-04-25T05:55:35.502Z,20.44
2019-04-25T05:56:35.491Z,20.51
2019-04-25T05:57:45.542Z,20.60
2019-04-25T05:58:36.478Z,20.57
2019-04-25T05:59:35.461Z,20.58
2019-04-25T06:00:35.450Z,20.69
2019-04-25T06:01:35.936Z,20.73
2019-04-25T06:02:35.427Z,20.76
2019-04-25T06:03:35.426Z,20.82
2019-04-25T06:04:35.404Z,20.79
2019-04-25T06:05:35.395Z,20.88
2019-04-25T06:06:36.839Z,20.79
2019-04-25T06:07:35.373Z,20.73
2019-04-25T06:08:35.372Z,20.66
2019-04-25T06:09:35.822Z,20.66
2019-04-25T06:10:35.342Z,20.68
2019-04-25T06:11:35.333Z,20.75
2019-04-25T06:12:35.320Z,20.57
2019-04-25T06:13:35.363Z,20.57
2019-04-25T06:14:35.296Z,20.58
2019-04-25T06:15:35.285Z,20.58
2019-04-25T06:16:35.278Z,20.56
2019-04-25T06:17:35.265Z,20.68
2019-04-25T06:18:35.267Z,20.64
2019-04-25T06:19:35.287Z,20.61
2019-04-25T06:20:35.233Z,20.57
2019-04-25T06:21:35.221Z,20.53
2019-04-25T06:22:35.212Z,20.54
2019-04-25T06:23:35.220Z,20.51
2019-04-25T06:24:35.210Z,20.48
2019-04-25T06:25:39.621Z,20.54
2019-04-25T06:26:39.759Z,20.46
2019-04-25T06:27:35.346Z,20.44
2019-04-25T06:28:35.148Z,20.37
2019-04-25T06:29:35.146Z,20.31
2019-04-25T06:30:35.364Z,20.20
2019-04-25T06:31:35.120Z,20.15
2019-04-25T06:32:35.532Z,20.05
2019-04-25T06:33:35.125Z,20.01
2019-04-25T06:34:36.453Z,19.89
2019-04-25T06:35:35.925Z,19.97
2019-04-25T06:36:35.400Z,19.86
2019-04-25T06:37:35.226Z,19.72
2019-04-25T06:38:35.041Z,19.72
2019-04-25T06:39:35.052Z,19.65
2019-04-25T06:40:35.024Z,19.60
2019-04-25T06:41:35.355Z,19.61
2019-04-25T06:42:34.997Z,19.57
2019-04-25T06:43:34.986Z,19.60
2019-04-25T06:44:34.974Z,19.67
2019-04-25T06:45:34.976Z,19.71
2019-04-25T06:46:34.954Z,19.79
2019-04-25T06:47:34.945Z,19.62
2019-04-25T06:48:35.231Z,19.68
2019-04-25T06:49:37.305Z,19.79
2019-04-25T06:50:35.388Z,19.75
2019-04-25T06:51:34.900Z,19.78
2019-04-25T06:52:35.456Z,19.86
2019-04-25T06:53:34.878Z,19.79
2019-04-25T06:54:35.273Z,19.97
2019-04-25T06:55:34.913Z,19.79
2019-04-25T06:56:34.848Z,19.87
2019-04-25T06:57:34.835Z,19.94
2019-04-25T06:58:34.829Z,19.80
2019-04-25T06:59:37.823Z,19.78
2019-04-25T07:00:40.953Z,19.86
2019-04-25T07:01:35.791Z,19.85
2019-04-25T07:02:35.159Z,19.89
2019-04-25T07:03:35.775Z,19.92
2019-04-25T07:04:34.903Z,20.02
2019-04-25T07:05:40.274Z,20.05
2019-04-25T07:06:35.752Z,20.16
2019-04-25T07:07:35.209Z,20.04
2019-04-25T07:08:35.329Z,20.02
2019-04-25T07:09:35.971Z,19.92
2019-04-25T07:10:35.013Z,20.00
2019-04-25T07:11:35.811Z,20.05
2019-04-25T07:12:35.978Z,20.05
2019-04-25T07:13:38.590Z,20.02
2019-04-25T07:14:36.949Z,20.04
2019-04-25T07:15:35.282Z,20.01
2019-04-25T07:16:34.706Z,20.05
2019-04-25T07:17:35.028Z,20.02
2019-04-25T07:18:37.080Z,19.89
2019-04-25T07:19:35.566Z,20.05
2019-04-25T07:20:35.499Z,20.04
2019-04-25T07:21:35.580Z,20.05
2019-04-25T07:22:35.398Z,20.07
2019-04-25T07:23:34.709Z,20.04
2019-04-25T07:24:35.332Z,19.90
2019-04-25T07:25:35.800Z,19.97
2019-04-25T07:26:39.476Z,19.94
2019-04-25T07:27:35.665Z,19.95
2019-04-25T07:28:36.047Z,19.92
2019-04-25T07:29:34.886Z,19.97
2019-04-25T07:30:49.298Z,20.08
2019-04-25T07:31:35.725Z,20.01
2019-04-25T07:32:34.889Z,20.15
2019-04-25T07:33:35.042Z,20.23
2019-04-25T07:34:35.107Z,20.25
2019-04-25T07:35:34.701Z,20.26
2019-04-25T07:36:35.107Z,20.42
2019-04-25T07:37:37.197Z,20.56
2019-04-25T07:38:35.026Z,20.72
2019-04-25T07:39:35.324Z,20.87
2019-04-25T07:40:35.020Z,21.03
2019-04-25T07:41:36.808Z,21.16
2019-04-25T07:42:35.427Z,21.46
2019-04-25T07:43:35.395Z,21.68
2019-04-25T07:44:47.821Z,21.91
2019-04-25T07:45:36.242Z,22.04
2019-04-25T07:46:38.197Z,22.23
2019-04-25T07:47:36.380Z,22.33
2019-04-25T07:48:37.142Z,22.45
2019-04-25T07:49:34.835Z,22.49
2019-04-25T07:50:35.349Z,22.56
2019-04-25T07:51:34.650Z,22.54
2019-04-25T07:52:34.858Z,22.61
2019-04-25T07:53:35.864Z,22.54
2019-04-25T07:54:35.395Z,22.52
2019-04-25T07:55:36.341Z,22.57
2019-04-25T07:56:35.245Z,22.54
2019-04-25T07:57:34.903Z,22.52
2019-04-25T07:58:45.415Z,22.46
2019-04-25T07:59:36.312Z,22.45
2019-04-25T08:00:35.258Z,22.45
2019-04-25T08:01:37.283Z,22.45
2019-04-25T08:02:35.029Z,22.38
2019-04-25T08:03:35.253Z,22.44
2019-04-25T08:04:35.756Z,22.49
2019-04-25T08:05:35.343Z,22.49
2019-04-25T08:06:34.585Z,22.52
2019-04-25T08:07:35.245Z,22.45
2019-04-25T08:08:34.992Z,22.41
2019-04-25T08:09:35.414Z,22.44
2019-04-25T08:10:34.686Z,22.44
2019-04-25T08:11:35.037Z,22.49
2019-04-25T08:12:34.651Z,22.52
2019-04-25T08:13:35.082Z,22.48
2019-04-25T08:14:35.068Z,22.57
2019-04-25T08:15:35.002Z,22.51
2019-04-25T08:16:34.778Z,22.56
2019-04-25T08:17:35.825Z,22.59
2019-04-25T08:18:35.115Z,22.63
2019-04-25T08:19:34.674Z,22.67
2019-04-25T08:20:34.709Z,22.72
2019-04-25T08:21:34.477Z,22.70
2019-04-25T08:22:42.936Z,22.74
2019-04-25T08:23:37.717Z,22.76
2019-04-25T08:24:34.888Z,22.85
2019-04-25T08:25:38.889Z,22.88
2019-04-25T08:26:36.221Z,22.94
2019-04-25T08:27:34.774Z,22.99
2019-04-25T08:28:34.547Z,23.14
2019-04-25T08:29:39.016Z,23.16
2019-04-25T08:30:35.305Z,23.26
2019-04-25T08:31:34.959Z,23.22
2019-04-25T08:32:35.518Z,23.32
2019-04-25T08:33:34.564Z,23.35
2019-04-25T08:34:35.732Z,23.41
2019-04-25T08:35:34.262Z,23.49
2019-04-25T08:36:38.084Z,23.37
2019-04-25T08:37:34.458Z,23.49
2019-04-25T08:38:34.850Z,23.57
2019-04-25T08:39:36.943Z,23.64
2019-04-25T08:40:35.729Z,23.71
2019-04-25T08:41:34.811Z,23.71
2019-04-25T08:42:35.423Z,23.81
2019-04-25T08:43:36.322Z,23.75
2019-04-25T08:44:34.823Z,23.94
2019-04-25T08:45:35.717Z,23.89
2019-04-25T08:46:35.836Z,24.02
2019-04-25T08:47:35.771Z,24.09
2019-04-25T08:48:34.612Z,24.21
2019-04-25T08:49:34.898Z,24.23
2019-04-25T08:50:37.171Z,24.37
2019-04-25T08:51:35.208Z,24.41
2019-04-25T08:52:35.494Z,24.49
2019-04-25T08:53:35.165Z,24.53
2019-04-25T08:54:35.440Z,24.61
2019-04-25T08:55:34.917Z,24.59
2019-04-25T08:56:35.108Z,24.75
2019-04-25T08:57:34.165Z,24.68
2019-04-25T08:58:35.128Z,24.80
2019-04-25T08:59:40.117Z,24.87
2019-04-25T09:00:35.759Z,24.83
2019-04-25T09:01:36.493Z,24.98
2019-04-25T09:02:36.062Z,25.01
2019-04-25T09:03:35.275Z,24.92
2019-04-25T09:04:35.711Z,25.02
2019-04-25T09:05:36.089Z,25.05
2019-04-25T09:06:36.053Z,25.12
2019-04-25T09:07:35.381Z,25.20
2019-04-25T09:08:36.015Z,25.23
2019-04-25T09:09:35.331Z,25.29
2019-04-25T09:10:35.781Z,25.35
2019-04-25T09:11:36.142Z,25.42
2019-04-25T09:12:35.518Z,25.36
2019-04-25T09:13:35.807Z,25.46
2019-04-25T09:14:35.581Z,25.48
2019-04-25T09:15:35.641Z,25.59
2019-04-25T09:16:34.746Z,25.67
2019-04-25T09:17:35.883Z,25.69
2019-04-25T09:18:35.737Z,25.76
2019-04-25T09:19:35.873Z,25.79
2019-04-25T09:20:38.067Z,25.79
2019-04-25T09:21:36.445Z,25.91
2019-04-25T09:22:36.101Z,25.98
2019-04-25T09:23:35.273Z,25.89
2019-04-25T09:24:36.269Z,26.01
2019-04-25T09:25:34.599Z,26.00
2019-04-25T09:26:34.911Z,26.03
2019-04-25T09:27:34.376Z,26.11
2019-04-25T09:28:35.065Z,26.13
2019-04-25T09:29:34.388Z,26.13
2019-04-25T09:30:34.956Z,26.24
2019-04-25T09:31:34.329Z,26.32
2019-04-25T09:32:33.797Z,26.36
2019-04-25T09:33:35.141Z,26.42
2019-04-25T09:34:33.575Z,26.46
2019-04-25T09:35:33.578Z,26.44
2019-04-25T09:36:33.648Z,26.41
2019-04-25T09:37:33.575Z,26.56
2019-04-25T09:38:34.799Z,26.57
2019-04-25T09:39:33.835Z,26.66
2019-04-25T09:40:34.177Z,26.68
2019-04-25T09:41:33.640Z,26.73
2019-04-25T09:42:33.819Z,26.90
2019-04-25T09:43:33.484Z,26.79
2019-04-25T09:44:33.072Z,26.57
2019-04-25T09:45:33.545Z,26.59
2019-04-25T09:46:34.209Z,26.56
2019-04-25T09:47:33.537Z,26.66
2019-04-25T09:48:35.384Z,26.65
2019-04-25T09:49:34.994Z,26.69
2019-04-25T09:50:33.954Z,26.84
2019-04-25T09:51:33.565Z,26.75
2019-04-25T09:52:34.021Z,26.83
2019-04-25T09:53:34.261Z,26.84
2019-04-25T09:54:33.418Z,27.01
2019-04-25T09:55:34.029Z,27.06
2019-04-25T09:56:33.958Z,27.02
2019-04-25T09:57:33.447Z,26.97
2019-04-25T09:58:33.846Z,27.06
2019-04-25T09:59:33.159Z,27.01
2019-04-25T10:00:33.417Z,27.03
2019-04-25T10:01:33.852Z,27.15
2019-04-25T10:02:32.874Z,27.28
2019-04-25T10:03:33.363Z,27.21
2019-04-25T10:04:34.508Z,27.24
2019-04-25T10:05:33.913Z,27.31
2019-04-25T10:06:33.293Z,27.28
2019-04-25T10:07:32.822Z,27.30
2019-04-25T10:08:34.222Z,27.40
2019-04-25T10:09:33.746Z,27.45
2019-04-25T10:10:32.802Z,27.48
2019-04-25T10:11:33.502Z,27.48
2019-04-25T10:12:34.127Z,27.46
2019-04-25T10:13:33.717Z,27.61
2019-04-25T10:14:32.751Z,27.65
2019-04-25T10:15:33.913Z,27.81
2019-04-25T10:16:33.510Z,27.78
2019-04-25T10:17:33.778Z,27.88
2019-04-25T10:18:33.442Z,27.91
2019-04-25T10:19:34.319Z,28.01
2019-04-25T10:20:33.382Z,28.06
2019-04-25T10:21:34.186Z,28.13
2019-04-25T10:22:33.932Z,28.09
2019-04-25T10:23:34.230Z,28.08
2019-04-25T10:24:32.641Z,28.21
2019-04-25T10:25:33.417Z,28.33
2019-04-25T10:26:33.501Z,28.36
2019-04-25T10:27:32.613Z,28.14
2019-04-25T10:28:33.608Z,28.14
2019-04-25T10:29:41.755Z,28.13
2019-04-25T10:30:34.300Z,28.08
2019-04-25T10:31:33.907Z,28.30
2019-04-25T10:32:33.564Z,28.58
2019-04-25T10:33:32.548Z,28.77
2019-04-25T10:34:33.360Z,28.98
2019-04-25T10:35:40.854Z,29.12
2019-04-25T10:36:33.734Z,29.37
2019-04-25T10:37:33.662Z,29.62
2019-04-25T10:38:33.571Z,29.69
2019-04-25T10:39:33.999Z,29.82
2019-04-25T10:40:33.829Z,29.89
2019-04-25T10:41:35.397Z,29.94
2019-04-25T10:42:34.177Z,30.10
2019-04-25T10:43:34.091Z,30.25
2019-04-25T10:44:33.831Z,30.45
2019-04-25T10:45:33.997Z,30.48
2019-04-25T10:46:33.960Z,30.60
2019-04-25T10:47:33.405Z,30.76
2019-04-25T10:48:34.290Z,30.93
2019-04-25T10:49:34.353Z,31.12
2019-04-25T10:50:34.005Z,31.19
2019-04-25T10:51:34.140Z,31.15
2019-04-25T10:52:33.779Z,31.37
2019-04-25T10:53:33.824Z,31.40
2019-04-25T10:54:34.947Z,31.45
2019-04-25T10:55:32.321Z,31.53
2019-04-25T10:56:33.470Z,31.56
2019-04-25T10:57:33.880Z,31.68
2019-04-25T10:58:33.525Z,31.75
2019-04-25T10:59:32.278Z,31.72
2019-04-25T11:00:33.800Z,31.64
2019-04-25T11:01:33.774Z,31.62
2019-04-25T11:02:33.950Z,31.65
2019-04-25T11:03:33.727Z,31.71
2019-04-25T11:04:32.229Z,31.72
2019-04-25T11:05:32.218Z,31.82
2019-04-25T11:06:33.684Z,31.97
2019-04-25T11:07:33.818Z,31.90
2019-04-25T11:08:33.873Z,32.06
2019-04-25T11:09:34.261Z,32.25
2019-04-25T11:10:32.166Z,32.43
2019-04-25T11:11:32.165Z,32.53
2019-04-25T11:12:33.799Z,32.58
2019-04-25T11:13:33.906Z,32.71
2019-04-25T11:14:32.132Z,32.72
2019-04-25T11:15:33.889Z,32.91
2019-04-25T11:16:33.308Z,32.99
2019-04-25T11:17:33.737Z,33.05
2019-04-25T11:18:33.890Z,33.29
2019-04-25T11:19:33.861Z,33.33
2019-04-25T11:20:33.709Z,33.49
2019-04-25T11:21:33.314Z,33.78
2019-04-25T11:22:32.046Z,33.96
2019-04-25T11:23:32.046Z,34.19
2019-04-25T11:24:32.027Z,34.42
2019-04-25T11:25:32.018Z,34.46
2019-04-25T11:26:34.490Z,34.75
2019-04-25T11:27:31.999Z,34.90
2019-04-25T11:28:33.610Z,35.10
2019-04-25T11:29:31.980Z,35.40
2019-04-25T11:30:31.968Z,35.65
2019-04-25T11:31:33.545Z,35.87
2019-04-25T11:32:33.797Z,36.00
2019-04-25T11:33:33.416Z,36.19
2019-04-25T11:34:31.931Z,36.40
2019-04-25T11:35:31.921Z,36.53
2019-04-25T11:36:31.934Z,36.57
2019-04-25T11:37:31.914Z,36.62
2019-04-25T11:38:31.895Z,36.64
2019-04-25T11:39:31.884Z,36.87
2019-04-25T11:40:31.880Z,37.11
2019-04-25T11:41:31.864Z,37.40
2019-04-25T11:42:31.868Z,37.59
2019-04-25T11:43:31.854Z,37.81
2019-04-25T11:44:33.286Z,37.90
2019-04-25T11:45:31.829Z,37.84
2019-04-25T11:46:33.305Z,37.70
2019-04-25T11:47:33.408Z,37.28
2019-04-25T11:48:31.800Z,36.71
2019-04-25T11:49:31.789Z,35.84
2019-04-25T11:50:31.781Z,34.88
2019-04-25T11:51:31.769Z,34.06
2019-04-25T11:52:33.505Z,33.75
2019-04-25T11:53:31.750Z,33.84
2019-04-25T11:54:31.742Z,34.33
2019-04-25T11:55:31.732Z,35.02
2019-04-25T11:56:31.722Z,35.74
2019-04-25T11:57:31.720Z,36.33
2019-04-25T11:58:31.734Z,36.65
2019-04-25T11:59:31.692Z,36.99
2019-04-25T12:00:31.688Z,37.18
2019-04-25T12:01:33.520Z,37.24
2019-04-25T12:02:31.672Z,37.33
2019-04-25T12:03:31.656Z,37.18
2019-04-25T12:04:33.179Z,37.08
2019-04-25T12:05:31.635Z,37.02
2019-04-25T12:06:31.626Z,36.67
2019-04-25T12:07:40.421Z,36.48
2019-04-25T12:08:31.607Z,36.08
2019-04-25T12:09:31.601Z,35.93
2019-04-25T12:10:31.587Z,35.87
2019-04-25T12:11:31.577Z,35.81
2019-04-25T12:12:33.716Z,35.65
2019-04-25T12:13:31.565Z,35.46
2019-04-25T12:14:31.551Z,35.15
2019-04-25T12:15:33.278Z,34.94
2019-04-25T12:16:31.528Z,34.72
2019-04-25T12:17:31.541Z,34.46
2019-04-25T12:18:33.368Z,34.33
2019-04-25T12:19:35.713Z,34.16
2019-04-25T12:20:33.958Z,34.03
2019-04-25T12:21:31.488Z,33.62
2019-04-25T12:22:31.479Z,33.47
2019-04-25T12:23:31.471Z,33.41
2019-04-25T12:24:33.296Z,33.24
2019-04-25T12:25:31.437Z,33.21
2019-04-25T12:26:33.589Z,33.12
2019-04-25T12:27:31.423Z,32.95
2019-04-25T12:28:31.415Z,32.85
2019-04-25T12:29:31.399Z,32.68
2019-04-25T12:30:38.081Z,32.49
2019-04-25T12:31:34.066Z,32.25
2019-04-25T12:32:31.380Z,32.09
2019-04-25T12:33:31.370Z,31.90
2019-04-25T12:34:31.350Z,31.79
2019-04-25T12:35:31.362Z,31.46
2019-04-25T12:36:31.324Z,31.42
2019-04-25T12:37:31.314Z,31.22
2019-04-25T12:38:31.318Z,31.09
2019-04-25T12:39:31.296Z,30.83
2019-04-25T12:40:31.283Z,30.64
2019-04-25T12:41:31.290Z,30.44
2019-04-25T12:42:31.270Z,30.28
2019-04-25T12:43:31.270Z,30.08
2019-04-25T12:44:31.244Z,30.01
2019-04-25T12:45:31.238Z,29.79
2019-04-25T12:46:31.220Z,29.74
2019-04-25T12:47:31.212Z,29.70
2019-04-25T12:48:31.240Z,29.57
2019-04-25T12:49:31.193Z,29.49
2019-04-25T12:50:31.180Z,29.37
2019-04-25T12:51:31.184Z,29.23
2019-04-25T12:52:31.160Z,29.07